Time;durP1;ratioP1;P1;durP2;ratioP2;P2;SDS_P1;SDS_P2;PMS_P1;PMS_P2;Temp;Humidity;BMP_temperature;BMP_pressure;BME280_temperature;BME280_humidity;BME280_pressure;Samples;Min_cycle;Max_cycle;Signal;HPM_P1;HPM_P2
2024/02/08 00:00:59;;;;;;;37.17;20.63;;;;;3.70;99793.00;;;;10451928;28;20221;-81
2024/02/08 00:06:01;;;;;;;42.27;23.43;;;;;3.80;99781.00;;;;10439126;28;20217;-80
2024/02/08 00:11:06;;;;;;;48.50;24.47;;;;;3.80;99791.00;;;;10438746;28;20804;-80
2024/02/08 00:16:11;;;;;;;45.57;25.17;;;;;3.80;99788.00;;;;10452692;28;20223;-80
2024/02/08 00:21:14;;;;;;;46.70;24.10;;;;;3.80;99795.00;;;;10437410;28;20237;-82
2024/02/08 00:26:17;;;;;;;45.03;25.17;;;;;3.80;99825.00;;;;10438902;28;20225;-82
2024/02/08 00:31:19;;;;;;;48.50;25.23;;;;;3.80;99826.00;;;;10440284;28;20275;-81
2024/02/08 00:36:21;;;;;;;51.23;26.00;;;;;3.80;99826.00;;;;10420625;28;20221;-80
2024/02/08 00:41:24;;;;;;;51.43;26.00;;;;;3.80;99826.00;;;;10434982;28;20221;-80
2024/02/08 00:46:25;;;;;;;44.17;23.77;;;;;3.80;99828.00;;;;10436379;28;20245;-80
2024/02/08 00:51:31;;;;;;;46.07;24.60;;;;;3.80;99825.00;;;;10416072;28;20507;-81
2024/02/08 00:56:34;;;;;;;47.80;25.20;;;;;3.80;99810.00;;;;10453760;28;20229;-83
2024/02/08 01:01:39;;;;;;;51.50;26.10;;;;;3.80;99806.00;;;;10435345;28;20280;-80
2024/02/08 01:06:41;;;;;;;48.30;24.47;;;;;3.80;99790.00;;;;10460203;28;20892;-80
2024/02/08 01:11:43;;;;;;;47.50;24.27;;;;;3.70;99804.00;;;;10418170;28;20286;-80
2024/02/08 01:16:45;;;;;;;54.47;26.20;;;;;3.70;99797.00;;;;10442133;28;20218;-80
2024/02/08 01:21:52;;;;;;;55.57;26.00;;;;;3.70;99812.00;;;;10456047;28;20225;-80
2024/02/08 01:26:56;;;;;;;60.30;26.43;;;;;3.70;99803.00;;;;10433724;28;20314;-81
2024/02/08 01:32:00;;;;;;;49.97;25.07;;;;;3.70;99788.00;;;;10460101;28;20260;-81
2024/02/08 01:37:03;;;;;;;51.23;24.47;;;;;3.60;99779.00;;;;10440594;28;20729;-80
2024/02/08 01:42:15;;;;;;;53.27;23.43;;;;;3.60;99759.00;;;;10433328;28;20217;-80
2024/02/08 01:47:17;;;;;;;44.47;22.97;;;;;3.60;99772.00;;;;10450160;28;20291;-80
2024/02/08 01:52:21;;;;;;;57.07;24.40;;;;;3.60;99776.00;;;;10448595;28;20229;-79
2024/02/08 01:57:23;;;;;;;51.70;21.77;;;;;3.60;99756.00;;;;10445766;28;20225;-80
2024/02/08 02:02:27;;;;;;;46.37;21.27;;;;;3.60;99760.00;;;;10429325;28;20222;-81
2024/02/08 02:07:29;;;;;;;45.87;22.07;;;;;3.60;99760.00;;;;10431620;28;20685;-79
2024/02/08 02:12:31;;;;;;;51.07;22.87;;;;;3.60;99767.00;;;;10430328;28;20248;-80
2024/02/08 02:17:32;;;;;;;43.33;22.07;;;;;3.60;99760.00;;;;10436472;28;20297;-81
2024/02/08 02:22:35;;;;;;;41.97;21.17;;;;;3.60;99760.00;;;;10429754;28;20228;-80
2024/02/08 02:27:40;;;;;;;42.60;20.13;;;;;3.60;99744.00;;;;10431146;28;20857;-81
2024/02/08 02:32:49;;;;;;;44.13;20.30;;;;;3.60;99740.00;;;;10411422;28;20948;-82
2024/02/08 02:37:52;;;;;;;44.63;21.87;;;;;3.60;99740.00;;;;10427443;28;20228;-81
2024/02/08 02:42:56;;;;;;;45.73;23.03;;;;;3.60;99725.00;;;;10443160;28;20627;-79
2024/02/08 02:48:01;;;;;;;44.73;21.97;;;;;3.60;99725.00;;;;10421680;28;20668;-81
2024/02/08 02:53:04;;;;;;;50.47;24.03;;;;;3.60;99724.00;;;;10415699;28;20704;-80
2024/02/08 02:58:06;;;;;;;51.30;23.10;;;;;3.60;99717.00;;;;10455527;28;20288;-80
2024/02/08 03:03:07;;;;;;;50.47;24.97;;;;;3.60;99725.00;;;;10449582;28;20221;-80
2024/02/08 03:08:10;;;;;;;47.57;24.10;;;;;3.60;99724.00;;;;10447097;28;20229;-81
2024/02/08 03:13:13;;;;;;;49.37;23.43;;;;;3.60;99714.00;;;;10426628;28;20225;-80
2024/02/08 03:18:15;;;;;;;53.33;24.30;;;;;3.60;99697.00;;;;10429547;28;20225;-81
2024/02/08 03:23:17;;;;;;;54.40;23.93;;;;;3.60;99703.00;;;;10428877;28;20300;-79
2024/02/08 03:28:22;;;;;;;52.13;24.47;;;;;3.70;99690.00;;;;10420503;28;20225;-78
2024/02/08 03:33:25;;;;;;;55.37;24.03;;;;;3.60;99692.00;;;;10428349;28;20312;-77
2024/02/08 03:38:27;;;;;;;54.70;23.93;;;;;3.60;99676.00;;;;10443050;28;20271;-78
2024/02/08 03:43:29;;;;;;;52.30;25.73;;;;;3.60;99680.00;;;;10437737;28;20221;-79
2024/02/08 03:48:32;;;;;;;50.07;25.40;;;;;3.60;99659.00;;;;10443930;28;20217;-77
2024/02/08 03:53:36;;;;;;;47.07;24.77;;;;;3.50;99665.00;;;;10427581;28;20788;-78
2024/02/08 03:58:38;;;;;;;49.83;25.33;;;;;3.50;99646.00;;;;10443232;28;20217;-79
2024/02/08 04:03:52;;;;;;;48.67;24.13;;;;;3.50;99647.00;;;;10438681;28;20740;-78
2024/02/08 04:09:08;;;;;;;55.30;25.53;;;;;3.50;99641.00;;;;10434520;28;20271;-79
2024/02/08 04:57:15;;;;;;;54.53;25.33;;;;;3.50;99603.00;;;;10449665;28;20225;-80
2024/02/08 05:02:17;;;;;;;54.37;26.20;;;;;3.50;99592.00;;;;10422530;28;20213;-80
2024/02/08 05:07:19;;;;;;;50.10;23.87;;;;;3.50;99602.00;;;;10450255;28;20259;-80
2024/02/08 05:12:21;;;;;;;45.13;23.20;;;;;3.50;99592.00;;;;10448270;28;20213;-80
2024/02/08 05:17:23;;;;;;;51.33;24.37;;;;;3.50;99594.00;;;;10441407;28;20268;-79
2024/02/08 05:22:24;;;;;;;52.60;24.43;;;;;3.50;99588.00;;;;10429270;28;20728;-79
2024/02/08 05:27:26;;;;;;;55.90;24.17;;;;;3.50;99588.00;;;;10465395;28;20214;-79
2024/02/08 05:32:28;;;;;;;54.03;23.07;;;;;3.50;99579.00;;;;10415852;28;20229;-82
2024/02/08 05:37:31;;;;;;;54.07;24.23;;;;;3.50;99562.00;;;;10429186;28;20213;-80
2024/02/08 05:42:33;;;;;;;49.93;22.50;;;;;3.50;99571.00;;;;10437739;28;20214;-81
2024/02/08 05:47:36;;;;;;;52.73;22.13;;;;;3.50;99550.00;;;;10450740;28;20623;-84
2024/02/08 05:52:38;;;;;;;57.03;21.97;;;;;3.50;99540.00;;;;10438509;28;20237;-84
2024/02/08 05:57:44;;;;;;;48.13;21.63;;;;;3.50;99539.00;;;;10431205;28;20225;-83
2024/02/08 06:02:46;;;;;;;50.83;23.17;;;;;3.50;99537.00;;;;10454965;28;20304;-84
2024/02/08 06:07:56;;;;;;;53.13;23.03;;;;;3.50;99527.00;;;;10439557;28;20229;-84
2024/02/08 06:12:59;;;;;;;53.93;23.70;;;;;3.50;99523.00;;;;10447896;28;20233;-84
2024/02/08 06:18:04;;;;;;;50.67;22.03;;;;;3.50;99516.00;;;;10421182;28;20299;-85
2024/02/08 06:28:52;;;;;;;56.47;22.10;;;;;3.60;99529.00;;;;10395285;28;20224;-83
2024/02/08 06:34:27;;;;;;;55.70;22.40;;;;;3.60;99500.00;;;;10450305;28;20918;-85
2024/02/08 06:39:44;;;;;;;57.80;23.20;;;;;3.60;99504.00;;;;10429666;28;20626;-84
2024/02/08 06:45:24;;;;;;;55.83;23.03;;;;;3.60;99500.00;;;;10430536;28;20606;-85
2024/02/08 07:38:14;;;;;;;38.93;17.43;;;;;3.70;99433.00;;;;10477727;28;20899;-76
2024/02/08 07:43:19;;;;;;;41.93;17.57;;;;;3.70;99409.00;;;;10425762;28;20596;-76
2024/02/08 07:48:37;;;;;;;39.87;16.77;;;;;3.80;99408.00;;;;10424267;28;20221;-76
2024/02/08 07:53:53;;;;;;;37.93;15.27;;;;;3.90;99408.00;;;;10429958;28;20963;-75
2024/02/08 07:59:03;;;;;;;38.50;16.20;;;;;3.90;99399.00;;;;10431206;28;20225;-76
2024/02/08 08:04:09;;;;;;;41.60;17.17;;;;;4.00;99388.00;;;;10429408;28;20225;-79
2024/02/08 08:09:21;;;;;;;37.00;15.43;;;;;4.00;99378.00;;;;10469406;28;20225;-78
2024/02/08 08:19:46;;;;;;;35.37;14.57;;;;;4.00;99366.00;;;;10416198;28;21778;-80
2024/02/08 08:30:27;;;;;;;38.40;15.63;;;;;4.10;99350.00;;;;10442798;28;20750;-79
2024/02/08 08:40:39;;;;;;;35.37;15.13;;;;;4.20;99333.00;;;;10456138;28;20588;-78
2024/02/08 08:45:42;;;;;;;35.27;14.97;;;;;4.20;99330.00;;;;10437235;28;20224;-80
2024/02/08 08:50:57;;;;;;;40.23;16.20;;;;;4.30;99306.00;;;;10444819;28;20219;-79
2024/02/08 08:56:03;;;;;;;34.53;14.13;;;;;4.40;99292.00;;;;10446907;28;20300;-79
2024/02/08 09:01:15;;;;;;;27.63;12.87;;;;;4.40;99276.00;;;;10431696;28;20607;-78
2024/02/08 09:06:18;;;;;;;29.67;13.13;;;;;4.40;99276.00;;;;10422063;28;20275;-79
2024/02/08 09:11:24;;;;;;;32.40;12.53;;;;;4.50;99260.00;;;;10464412;28;20978;-78
2024/02/08 09:16:30;;;;;;;34.03;12.23;;;;;4.50;99247.00;;;;10453060;28;20229;-76
2024/02/08 09:21:33;;;;;;;28.30;12.60;;;;;4.50;99229.00;;;;10464794;28;20222;-76
2024/02/08 09:26:51;;;;;;;29.00;12.47;;;;;4.50;99223.00;;;;10443532;28;20217;-76
2024/02/08 09:31:58;;;;;;;29.57;12.83;;;;;4.60;99231.00;;;;10430174;28;20213;-76
2024/02/08 09:37:01;;;;;;;33.23;13.17;;;;;4.60;99231.00;;;;10429575;28;20232;-76
2024/02/08 09:42:07;;;;;;;29.87;11.93;;;;;4.60;99224.00;;;;10424095;28;20222;-75
2024/02/08 09:47:25;;;;;;;26.20;12.07;;;;;4.70;99225.00;;;;10417498;28;20226;-76
2024/02/08 09:52:40;;;;;;;30.30;12.97;;;;;4.70;99232.00;;;;10419721;28;20290;-78
2024/02/08 09:57:47;;;;;;;29.70;12.17;;;;;4.80;99212.00;;;;10449306;28;20225;-75
2024/02/08 10:03:03;;;;;;;29.37;11.87;;;;;4.90;99217.00;;;;10442769;28;20232;-76
2024/02/08 10:08:08;;;;;;;25.53;10.97;;;;;5.10;99222.00;;;;10434318;28;20216;-79
2024/02/08 10:13:25;;;;;;;25.40;10.83;;;;;5.30;99216.00;;;;10420864;28;20661;-77
2024/02/08 10:18:37;;;;;;;23.17;10.30;;;;;5.60;99196.00;;;;10422705;28;20213;-80
2024/02/08 10:23:59;;;;;;;19.73;8.03;;;;;5.70;99186.00;;;;10426289;28;20224;-82
2024/02/08 10:29:07;;;;;;;17.33;7.17;;;;;5.60;99192.00;;;;10421665;28;20221;-82
2024/02/08 10:34:09;;;;;;;18.53;8.00;;;;;5.60;99180.00;;;;10459230;28;20221;-82
2024/02/08 10:39:25;;;;;;;16.57;7.60;;;;;5.60;99170.00;;;;10443657;28;20225;-82
2024/02/08 10:44:32;;;;;;;16.43;7.63;;;;;5.60;99159.00;;;;10440315;28;20217;-81
2024/02/08 10:49:42;;;;;;;18.53;8.60;;;;;5.60;99158.00;;;;10419569;28;20300;-82
2024/02/08 10:54:52;;;;;;;21.40;9.63;;;;;5.60;99138.00;;;;10434007;28;20751;-82
2024/02/08 10:59:59;;;;;;;18.50;7.37;;;;;5.60;99119.00;;;;10441297;28;20213;-82
2024/02/08 11:10:31;;;;;;;17.00;7.27;;;;;5.50;99098.00;;;;10474487;27;20299;-82
2024/02/08 11:15:38;;;;;;;20.03;7.93;;;;;5.60;99068.00;;;;10458304;28;20249;-81
2024/02/08 11:20:44;;;;;;;20.70;8.00;;;;;5.50;99071.00;;;;10435145;28;20225;-82
2024/02/08 11:25:46;;;;;;;18.73;8.20;;;;;5.70;99042.00;;;;10420006;28;20220;-81
2024/02/08 11:30:51;;;;;;;17.63;8.13;;;;;5.90;99043.00;;;;10416461;28;20245;-83
2024/02/08 11:36:11;;;;;;;19.13;8.87;;;;;5.80;99032.00;;;;10432539;28;20220;-78
2024/02/08 11:41:18;;;;;;;18.03;9.27;;;;;5.80;99021.00;;;;10444855;28;20224;-80
2024/02/08 11:46:22;;;;;;;17.10;8.63;;;;;5.80;99004.00;;;;10426745;28;20236;-77
2024/02/08 11:51:23;;;;;;;22.97;10.23;;;;;5.80;98986.00;;;;10435965;28;20229;-79
2024/02/08 11:56:29;;;;;;;19.57;9.33;;;;;6.00;98976.00;;;;10423026;28;20308;-77
2024/02/08 12:01:32;;;;;;;23.00;11.03;;;;;6.20;98972.00;;;;10427087;28;20221;-78
2024/02/08 12:06:34;;;;;;;24.47;10.83;;;;;6.10;98955.00;;;;10418615;28;20224;-78
2024/02/08 12:11:36;;;;;;;26.13;10.87;;;;;6.20;98952.00;;;;10417987;28;20275;-78
2024/02/08 12:16:46;;;;;;;22.50;10.20;;;;;6.40;98951.00;;;;10407245;28;20781;-78
2024/02/08 12:21:58;;;;;;;24.93;11.07;;;;;6.60;98937.00;;;;10455843;28;20221;-82
2024/02/08 12:27:12;;;;;;;24.73;12.23;;;;;6.70;98928.00;;;;10430477;28;20287;-80
2024/02/08 12:32:18;;;;;;;24.33;11.07;;;;;6.90;98910.00;;;;10435926;28;20217;-83
2024/02/08 12:37:29;;;;;;;26.53;11.63;;;;;7.10;98907.00;;;;10422751;28;20259;-79
2024/02/08 12:42:34;;;;;;;24.67;11.47;;;;;7.20;98897.00;;;;10423735;28;20221;-78
2024/02/08 12:47:38;;;;;;;25.70;11.07;;;;;7.40;98872.00;;;;10440263;28;20312;-83
2024/02/08 12:52:41;;;;;;;26.53;12.47;;;;;7.40;98849.00;;;;10434093;28;20236;-82
2024/02/08 12:57:43;;;;;;;25.37;12.40;;;;;7.30;98820.00;;;;10424665;28;20230;-83
2024/02/08 13:02:54;;;;;;;23.13;11.47;;;;;7.30;98803.00;;;;10434729;28;20214;-83
2024/02/08 13:07:59;;;;;;;23.60;12.00;;;;;7.50;98800.00;;;;10431416;28;20257;-86
2024/02/08 13:13:09;;;;;;;24.80;12.27;;;;;7.60;98782.00;;;;10425639;28;20226;-82
2024/02/08 13:18:13;;;;;;;29.23;13.90;;;;;7.70;98777.00;;;;10426857;28;20228;-81
2024/02/08 13:23:15;;;;;;;29.87;12.40;;;;;7.70;98768.00;;;;10428302;28;20220;-82
2024/02/08 13:28:18;;;;;;;23.50;13.00;;;;;8.00;98743.00;;;;10446851;28;20287;-82
2024/02/08 13:33:20;;;;;;;24.53;11.97;;;;;8.00;98741.00;;;;10422824;28;20661;-83
2024/02/08 13:38:23;;;;;;;29.10;14.23;;;;;8.10;98742.00;;;;10440717;28;20322;-84
2024/02/08 13:43:30;;;;;;;27.27;10.47;;;;;8.60;98725.00;;;;10442407;28;20612;-84
2024/02/08 13:48:33;;;;;;;13.27;5.27;;;;;9.80;98713.00;;;;10420637;28;20231;-85
2024/02/08 13:53:35;;;;;;;15.60;3.77;;;;;10.40;98723.00;;;;10428613;28;20225;-79
2024/02/08 13:58:37;;;;;;;8.77;4.60;;;;;10.80;98731.00;;;;10407110;28;20222;-82
2024/02/08 14:03:39;;;;;;;14.57;4.60;;;;;10.90;98728.00;;;;10419199;28;20308;-79
2024/02/08 14:08:46;;;;;;;14.77;5.63;;;;;10.90;98716.00;;;;10443461;28;20854;-78
2024/02/08 14:13:50;;;;;;;18.37;5.43;;;;;11.10;98697.00;;;;10422869;28;20236;-79
2024/02/08 14:18:54;;;;;;;12.87;4.80;;;;;11.10;98685.00;;;;10406264;28;20248;-81
2024/02/08 14:24:00;;;;;;;18.10;6.00;;;;;11.10;98685.00;;;;10430328;28;20222;-82
2024/02/08 14:29:05;;;;;;;16.17;5.53;;;;;11.20;98689.00;;;;10450901;28;20368;-82
2024/02/08 14:34:08;;;;;;;14.67;4.87;;;;;11.30;98678.00;;;;10438999;28;20307;-79
2024/02/08 14:39:26;;;;;;;16.07;5.50;;;;;11.40;98691.00;;;;10429841;28;20275;-83
2024/02/08 14:44:40;;;;;;;23.07;6.60;;;;;11.40;98679.00;;;;10464805;28;20221;-79
2024/02/08 14:50:48;;;;;;;15.45;5.10;;;;;11.40;98674.00;;;;10423330;28;20225;-79
2024/02/08 14:55:45;;;;;;;21.13;4.97;;;;;11.40;98660.00;;;;10427712;28;20241;-79
2024/02/08 15:05:48;;;;;;;16.58;4.85;;;;;11.70;98656.00;;;;10432953;28;20796;-76
2024/02/08 15:11:09;;;;;;;12.40;3.65;;;;;11.70;98656.00;;;;10438748;28;20216;-76
2024/02/08 15:16:24;;;;;;;18.73;5.43;;;;;11.80;98634.00;;;;10428669;28;20234;-79
2024/02/08 15:21:34;;;;;;;12.23;3.93;;;;;11.80;98638.00;;;;10435899;28;20367;-76
2024/02/08 15:26:38;;;;;;;11.98;4.07;;;;;11.80;98639.00;;;;10421168;28;20225;-78
2024/02/08 15:31:46;;;;;;;16.58;5.10;;;;;11.70;98636.00;;;;10456078;28;20308;-78
2024/02/08 15:36:52;;;;;;;10.83;4.00;;;;;11.70;98628.00;;;;10419404;28;20228;-79
2024/02/08 15:42:01;;;;;;;15.10;3.60;;;;;11.60;98618.00;;;;10411479;28;20232;-80
2024/02/08 15:47:15;;;;;;;15.95;5.60;;;;;11.60;98617.00;;;;10407739;28;20217;-78
2024/02/08 15:52:22;;;;;;;8.33;4.23;;;;;11.60;98612.00;;;;10425404;28;20253;-79
2024/02/08 15:57:29;;;;;;;15.32;4.40;;;;;11.60;98612.00;;;;10436942;28;20233;-77
2024/02/08 16:02:35;;;;;;;15.05;5.00;;;;;11.60;98600.00;;;;10422980;28;21062;-73
2024/02/08 16:07:42;;;;;;;13.23;4.50;;;;;11.50;98592.00;;;;10410585;28;20214;-78
2024/02/08 16:12:47;;;;;;;14.00;4.03;;;;;11.50;98593.00;;;;10423270;28;20221;-78
2024/02/08 16:18:00;;;;;;;11.13;4.90;;;;;11.50;98604.00;;;;10416361;28;20236;-85
2024/02/08 16:23:05;;;;;;;11.07;4.10;;;;;11.50;98587.00;;;;10404770;28;20323;-85
2024/02/08 16:28:16;;;;;;;13.70;5.13;;;;;11.50;98586.00;;;;10437477;28;20328;-84
2024/02/08 16:33:32;;;;;;;16.13;4.63;;;;;11.40;98600.00;;;;10428817;28;20233;-84
2024/02/08 16:38:46;;;;;;;12.80;4.50;;;;;11.30;98589.00;;;;10423135;28;20225;-83
2024/02/08 16:43:49;;;;;;;11.07;4.30;;;;;11.20;98596.00;;;;10429388;28;20217;-84
2024/02/08 16:49:00;;;;;;;12.77;4.47;;;;;11.10;98589.00;;;;10465423;28;20286;-85
2024/02/08 16:54:17;;;;;;;17.63;4.70;;;;;11.00;98579.00;;;;10423291;28;20237;-84
2024/02/08 16:59:29;;;;;;;13.30;4.53;;;;;11.00;98582.00;;;;10441986;28;20228;-86
2024/02/08 17:04:47;;;;;;;12.93;4.80;;;;;11.00;98576.00;;;;10432448;28;20221;-82
2024/02/08 17:09:58;;;;;;;14.17;5.23;;;;;11.00;98574.00;;;;10438412;28;20899;-84
2024/02/08 17:15:20;;;;;;;18.13;6.17;;;;;11.00;98578.00;;;;10451687;28;20975;-82
2024/02/08 17:20:37;;;;;;;15.57;4.67;;;;;11.00;98579.00;;;;10421490;28;20224;-85
2024/02/08 17:25:42;;;;;;;13.63;5.10;;;;;11.00;98584.00;;;;10428047;28;20309;-82
2024/02/08 17:31:04;;;;;;;20.63;6.30;;;;;11.00;98560.00;;;;10420199;28;20577;-85
2024/02/08 17:36:11;;;;;;;15.03;5.10;;;;;11.10;98574.00;;;;10428047;28;20222;-79
2024/02/08 17:41:18;;;;;;;16.87;6.07;;;;;11.10;98567.00;;;;10445691;28;20303;-79
2024/02/08 17:46:21;;;;;;;20.70;6.27;;;;;11.10;98558.00;;;;10439710;28;20245;-79
2024/02/08 17:51:37;;;;;;;15.70;6.00;;;;;11.10;98565.00;;;;10440912;28;20300;-79
2024/02/08 17:56:45;;;;;;;17.20;6.00;;;;;11.10;98551.00;;;;10422042;28;20226;-79
2024/02/08 18:02:04;;;;;;;14.47;5.30;;;;;11.10;98545.00;;;;10427070;28;20222;-78
2024/02/08 18:07:09;;;;;;;16.40;6.13;;;;;11.00;98530.00;;;;10449420;28;20278;-79
2024/02/08 18:12:33;;;;;;;19.00;6.33;;;;;10.90;98524.00;;;;10430653;28;20760;-79
2024/02/08 18:17:44;;;;;;;11.40;5.77;;;;;10.90;98525.00;;;;10441210;28;21728;-80
2024/02/08 18:22:48;;;;;;;20.33;6.90;;;;;10.80;98516.00;;;;10423146;28;20245;-80
2024/02/08 18:27:51;;;;;;;18.97;7.47;;;;;10.80;98509.00;;;;10424964;28;20218;-78
2024/02/08 18:32:54;;;;;;;14.43;5.20;;;;;10.80;98500.00;;;;10429739;28;20226;-78
2024/02/08 18:37:57;;;;;;;14.23;5.83;;;;;10.80;98499.00;;;;10439416;28;20259;-80
2024/02/08 18:43:03;;;;;;;19.07;6.57;;;;;10.70;98512.00;;;;10447379;28;20247;-79
2024/02/08 18:48:10;;;;;;;11.87;5.30;;;;;10.70;98506.00;;;;10453887;28;20257;-78
2024/02/08 18:53:13;;;;;;;18.00;6.17;;;;;10.60;98503.00;;;;10441596;28;20261;-80
2024/02/08 18:58:17;;;;;;;16.60;7.50;;;;;10.60;98500.00;;;;10430821;28;20258;-79
2024/02/08 19:03:21;;;;;;;18.57;5.60;;;;;10.60;98507.00;;;;10430514;28;21026;-77
2024/02/08 19:08:24;;;;;;;19.20;6.63;;;;;10.60;98524.00;;;;10418169;28;20667;-78
2024/02/08 19:13:30;;;;;;;15.87;5.70;;;;;10.50;98516.00;;;;10457674;28;20214;-78
2024/02/08 19:18:43;;;;;;;18.47;6.57;;;;;10.50;98517.00;;;;10444612;28;20239;-79
2024/02/08 19:23:49;;;;;;;19.00;6.60;;;;;10.40;98514.00;;;;10429834;28;20221;-80
2024/02/08 19:28:52;;;;;;;25.53;6.87;;;;;10.40;98516.00;;;;10414536;28;20218;-79
2024/02/08 19:33:57;;;;;;;14.50;6.07;;;;;10.40;98509.00;;;;10436643;28;20263;-79
2024/02/08 19:44:36;;;;;;;14.27;5.83;;;;;10.30;98503.00;;;;10394069;28;20232;-79
2024/02/08 19:49:39;;;;;;;17.63;6.90;;;;;10.30;98490.00;;;;10440938;28;20314;-78
2024/02/08 19:54:42;;;;;;;16.30;6.30;;;;;10.30;98480.00;;;;10438363;28;20218;-84
2024/02/08 19:59:48;;;;;;;17.47;6.20;;;;;10.30;98473.00;;;;10421860;28;20688;-81
2024/02/08 20:04:58;;;;;;;13.23;4.57;;;;;10.20;98463.00;;;;10439359;28;20224;-84
2024/02/08 20:10:01;;;;;;;16.00;5.57;;;;;10.20;98466.00;;;;10436966;28;20217;-84
2024/02/08 20:15:16;;;;;;;14.77;5.13;;;;;10.20;98461.00;;;;10455546;28;20683;-82
2024/02/08 20:20:19;;;;;;;17.30;5.60;;;;;10.20;98437.00;;;;10436273;28;20213;-83
2024/02/08 20:25:26;;;;;;;18.47;6.43;;;;;10.20;98441.00;;;;10459338;28;20232;-82
2024/02/08 20:30:33;;;;;;;16.07;6.17;;;;;10.10;98436.00;;;;10422785;28;20228;-83
2024/02/08 20:35:34;;;;;;;18.37;6.30;;;;;10.10;98425.00;;;;10424676;28;20230;-82
2024/02/08 20:40:36;;;;;;;17.20;5.80;;;;;10.10;98423.00;;;;10437699;28;20221;-83
2024/02/08 20:45:40;;;;;;;15.47;6.97;;;;;10.10;98413.00;;;;10449507;28;20696;-83
2024/02/08 20:50:42;;;;;;;23.93;6.87;;;;;10.10;98421.00;;;;10438300;28;20229;-84
2024/02/08 20:55:47;;;;;;;18.47;6.13;;;;;10.10;98410.00;;;;10455676;28;20226;-83
2024/02/08 21:00:51;;;;;;;21.13;6.57;;;;;10.20;98399.00;;;;10464187;28;20904;-82
2024/02/08 21:05:55;;;;;;;19.27;6.47;;;;;10.20;98387.00;;;;10428957;28;20217;-81
2024/02/08 21:10:58;;;;;;;15.07;6.60;;;;;10.20;98382.00;;;;10425707;28;20229;-82
2024/02/08 21:16:04;;;;;;;18.30;5.37;;;;;10.10;98380.00;;;;10430003;28;20271;-80
2024/02/08 21:21:06;;;;;;;16.40;5.80;;;;;10.20;98376.00;;;;10426619;28;20225;-82
2024/02/08 21:26:15;;;;;;;21.87;6.73;;;;;10.10;98362.00;;;;10445775;28;20209;-81
2024/02/08 21:31:18;;;;;;;20.13;6.10;;;;;10.10;98349.00;;;;10448816;28;20225;-81
2024/02/08 21:36:20;;;;;;;19.93;7.10;;;;;10.10;98343.00;;;;10440523;28;20233;-82
2024/02/08 21:41:23;;;;;;;20.17;7.50;;;;;10.10;98341.00;;;;10423172;28;20217;-81
2024/02/08 21:46:27;;;;;;;22.33;6.23;;;;;10.10;98335.00;;;;10441929;28;20912;-81
2024/02/08 21:51:29;;;;;;;15.43;6.47;;;;;10.10;98325.00;;;;10426688;28;20229;-81
2024/02/08 21:56:31;;;;;;;22.57;7.37;;;;;10.10;98320.00;;;;10425119;28;20292;-81
2024/02/08 22:01:33;;;;;;;21.50;8.17;;;;;10.10;98313.00;;;;10426901;28;20789;-82
2024/02/08 22:06:36;;;;;;;19.43;6.97;;;;;10.10;98306.00;;;;10461830;28;20225;-81
2024/02/08 22:11:45;;;;;;;19.83;7.00;;;;;10.10;98302.00;;;;10441227;28;20225;-80
2024/02/08 22:16:47;;;;;;;20.67;6.77;;;;;10.10;98293.00;;;;10473492;28;20226;-81
2024/02/08 22:21:52;;;;;;;17.07;6.53;;;;;10.10;98288.00;;;;10432901;28;20237;-82
2024/02/08 22:26:57;;;;;;;21.53;8.00;;;;;10.10;98278.00;;;;10432197;28;20692;-83
2024/02/08 22:31:59;;;;;;;16.80;7.20;;;;;10.10;98280.00;;;;10429165;28;20228;-82
2024/02/08 22:37:04;;;;;;;22.90;8.07;;;;;10.10;98258.00;;;;10434151;28;20283;-83
2024/02/08 22:42:06;;;;;;;20.97;7.17;;;;;10.10;98239.00;;;;10424187;28;20304;-82
2024/02/08 22:47:08;;;;;;;19.47;7.80;;;;;10.10;98236.00;;;;10436949;28;20221;-83
2024/02/08 22:52:10;;;;;;;17.50;7.60;;;;;10.10;98227.00;;;;10422477;28;20218;-84
2024/02/08 22:57:12;;;;;;;15.40;6.60;;;;;10.10;98229.00;;;;10433477;28;20232;-83
2024/02/08 23:02:16;;;;;;;15.93;6.43;;;;;10.10;98221.00;;;;10424013;28;20218;-83
2024/02/08 23:07:18;;;;;;;19.63;6.53;;;;;10.10;98205.00;;;;10435138;28;20217;-83
2024/02/08 23:12:21;;;;;;;12.77;6.30;;;;;10.20;98207.00;;;;10438315;28;20230;-84
2024/02/08 23:17:23;;;;;;;12.70;5.97;;;;;10.20;98202.00;;;;10456283;28;20225;-82
2024/02/08 23:22:25;;;;;;;14.33;6.00;;;;;10.10;98203.00;;;;10425504;28;20237;-83
2024/02/08 23:27:28;;;;;;;21.20;6.57;;;;;10.10;98186.00;;;;10418938;28;20217;-87
2024/02/08 23:32:33;;;;;;;21.57;6.40;;;;;10.10;98189.00;;;;10427021;28;20219;-88
2024/02/08 23:37:36;;;;;;;16.53;5.87;;;;;10.10;98176.00;;;;10425738;28;20461;-88
2024/02/08 23:42:39;;;;;;;17.37;6.00;;;;;10.10;98171.00;;;;10431206;28;20305;-85
2024/02/08 23:47:43;;;;;;;16.07;5.77;;;;;10.10;98160.00;;;;10449863;28;20224;-87
2024/02/08 23:52:45;;;;;;;21.03;6.60;;;;;10.10;98161.00;;;;10435901;28;20217;-88
2024/02/08 23:57:47;;;;;;;19.90;6.00;;;;;10.10;98158.00;;;;10443734;28;20482;-88
